sensor_id;sensor_type;location;lat;lon;timestamp;temperature;humidity
21770;DHT22;11046;49.558;8.674;2023-06-01T00:00:38;16.80;53.20
21770;DHT22;11046;49.558;8.674;2023-06-01T00:03:41;16.90;53.30
21770;DHT22;11046;49.558;8.674;2023-06-01T00:06:42;16.90;53.30
21770;DHT22;11046;49.558;8.674;2023-06-01T00:09:43;16.90;53.30
21770;DHT22;11046;49.558;8.674;2023-06-01T00:12:43;17.00;53.20
21770;DHT22;11046;49.558;8.674;2023-06-01T00:15:44;17.00;53.10
21770;DHT22;11046;49.558;8.674;2023-06-01T00:18:45;17.10;53.00
21770;DHT22;11046;49.558;8.674;2023-06-01T00:21:45;17.10;52.90
21770;DHT22;11046;49.558;8.674;2023-06-01T00:24:46;17.10;52.90
21770;DHT22;11046;49.558;8.674;2023-06-01T00:27:48;17.10;52.90
21770;DHT22;11046;49.558;8.674;2023-06-01T00:30:49;17.00;53.10
21770;DHT22;11046;49.558;8.674;2023-06-01T00:33:50;16.90;53.80
21770;DHT22;11046;49.558;8.674;2023-06-01T00:36:51;16.80;53.40
21770;DHT22;11046;49.558;8.674;2023-06-01T00:39:51;16.80;53.40
21770;DHT22;11046;49.558;8.674;2023-06-01T00:42:55;16.90;53.40
21770;DHT22;11046;49.558;8.674;2023-06-01T00:45:56;17.00;53.20
21770;DHT22;11046;49.558;8.674;2023-06-01T00:48:58;17.10;53.10
21770;DHT22;11046;49.558;8.674;2023-06-01T00:51:58;17.10;53.00
21770;DHT22;11046;49.558;8.674;2023-06-01T00:54:59;17.10;53.00
21770;DHT22;11046;49.558;8.674;2023-06-01T00:58:00;17.20;52.80
21770;DHT22;11046;49.558;8.674;2023-06-01T01:01:01;17.20;52.70
21770;DHT22;11046;49.558;8.674;2023-06-01T01:04:02;17.20;52.60
21770;DHT22;11046;49.558;8.674;2023-06-01T01:07:15;17.30;52.60
21770;DHT22;11046;49.558;8.674;2023-06-01T01:10:39;17.30;52.70
21770;DHT22;11046;49.558;8.674;2023-06-01T01:13:45;17.30;52.50
21770;DHT22;11046;49.558;8.674;2023-06-01T01:17:03;17.40;52.40
21770;DHT22;11046;49.558;8.674;2023-06-01T01:20:24;17.40;52.40
21770;DHT22;11046;49.558;8.674;2023-06-01T01:23:47;17.50;52.30
21770;DHT22;11046;49.558;8.674;2023-06-01T01:27:14;17.40;52.30
21770;DHT22;11046;49.558;8.674;2023-06-01T01:30:21;17.50;52.40
21770;DHT22;11046;49.558;8.674;2023-06-01T01:33:23;17.40;52.10
21770;DHT22;11046;49.558;8.674;2023-06-01T01:36:24;17.50;52.10
21770;DHT22;11046;49.558;8.674;2023-06-01T01:39:29;17.40;52.10
21770;DHT22;11046;49.558;8.674;2023-06-01T01:42:30;17.40;52.20
21770;DHT22;11046;49.558;8.674;2023-06-01T01:45:31;17.40;52.20
21770;DHT22;11046;49.558;8.674;2023-06-01T01:48:36;17.40;52.10
21770;DHT22;11046;49.558;8.674;2023-06-01T01:51:56;17.40;52.10
21770;DHT22;11046;49.558;8.674;2023-06-01T01:54:57;17.40;52.50
21770;DHT22;11046;49.558;8.674;2023-06-01T01:57:59;17.30;52.40
21770;DHT22;11046;49.558;8.674;2023-06-01T02:01:03;17.20;52.50
21770;DHT22;11046;49.558;8.674;2023-06-01T02:04:04;17.10;52.70
21770;DHT22;11046;49.558;8.674;2023-06-01T02:07:08;17.00;52.90
21770;DHT22;11046;49.558;8.674;2023-06-01T02:10:12;16.90;53.00
21770;DHT22;11046;49.558;8.674;2023-06-01T02:13:14;16.90;53.20
21770;DHT22;11046;49.558;8.674;2023-06-01T02:16:15;16.80;53.40
21770;DHT22;11046;49.558;8.674;2023-06-01T02:19:16;16.70;53.50
21770;DHT22;11046;49.558;8.674;2023-06-01T02:22:18;16.70;53.60
21770;DHT22;11046;49.558;8.674;2023-06-01T02:25:19;16.70;53.70
21770;DHT22;11046;49.558;8.674;2023-06-01T02:28:20;16.70;53.80
21770;DHT22;11046;49.558;8.674;2023-06-01T02:31:21;16.70;53.80
21770;DHT22;11046;49.558;8.674;2023-06-01T02:34:22;16.70;53.70
21770;DHT22;11046;49.558;8.674;2023-06-01T02:37:23;16.70;53.70
21770;DHT22;11046;49.558;8.674;2023-06-01T02:40:24;16.70;53.80
21770;DHT22;11046;49.558;8.674;2023-06-01T02:43:26;16.60;53.80
21770;DHT22;11046;49.558;8.674;2023-06-01T02:46:27;16.60;54.80
21770;DHT22;11046;49.558;8.674;2023-06-01T02:49:28;16.50;54.10
21770;DHT22;11046;49.558;8.674;2023-06-01T02:52:29;16.50;54.30
21770;DHT22;11046;49.558;8.674;2023-06-01T02:55:31;16.40;54.40
21770;DHT22;11046;49.558;8.674;2023-06-01T02:58:52;16.40;54.40
21770;DHT22;11046;49.558;8.674;2023-06-01T03:01:58;16.40;54.50
21770;DHT22;11046;49.558;8.674;2023-06-01T03:04:58;16.40;54.60
21770;DHT22;11046;49.558;8.674;2023-06-01T03:07:59;16.40;54.70
21770;DHT22;11046;49.558;8.674;2023-06-01T03:11:01;16.30;54.70
21770;DHT22;11046;49.558;8.674;2023-06-01T03:14:08;16.30;54.90
21770;DHT22;11046;49.558;8.674;2023-06-01T03:17:09;16.30;54.90
21770;DHT22;11046;49.558;8.674;2023-06-01T03:20:10;16.20;55.00
21770;DHT22;11046;49.558;8.674;2023-06-01T03:23:18;16.20;55.20
21770;DHT22;11046;49.558;8.674;2023-06-01T03:26:19;16.10;55.20
21770;DHT22;11046;49.558;8.674;2023-06-01T03:29:22;16.10;55.30
21770;DHT22;11046;49.558;8.674;2023-06-01T03:32:22;16.10;55.40
21770;DHT22;11046;49.558;8.674;2023-06-01T03:35:26;16.00;55.50
21770;DHT22;11046;49.558;8.674;2023-06-01T03:38:27;15.90;55.60
21770;DHT22;11046;49.558;8.674;2023-06-01T03:41:28;15.90;55.90
21770;DHT22;11046;49.558;8.674;2023-06-01T03:44:31;15.80;56.00
21770;DHT22;11046;49.558;8.674;2023-06-01T03:47:32;15.80;56.10
21770;DHT22;11046;49.558;8.674;2023-06-01T03:50:34;15.80;56.20
21770;DHT22;11046;49.558;8.674;2023-06-01T03:53:36;15.80;56.20
21770;DHT22;11046;49.558;8.674;2023-06-01T03:56:37;15.80;56.40
21770;DHT22;11046;49.558;8.674;2023-06-01T03:59:39;15.80;56.50
21770;DHT22;11046;49.558;8.674;2023-06-01T04:02:40;15.60;57.30
21770;DHT22;11046;49.558;8.674;2023-06-01T04:05:42;15.60;56.90
21770;DHT22;11046;49.558;8.674;2023-06-01T04:08:48;15.60;56.90
21770;DHT22;11046;49.558;8.674;2023-06-01T04:11:50;15.70;56.90
21770;DHT22;11046;49.558;8.674;2023-06-01T04:14:51;15.60;56.90
21770;DHT22;11046;49.558;8.674;2023-06-01T04:17:51;15.70;57.00
21770;DHT22;11046;49.558;8.674;2023-06-01T04:20:53;15.70;57.10
21770;DHT22;11046;49.558;8.674;2023-06-01T04:23:54;15.70;57.20
21770;DHT22;11046;49.558;8.674;2023-06-01T04:26:56;15.70;57.10
21770;DHT22;11046;49.558;8.674;2023-06-01T04:29:57;15.80;57.10
21770;DHT22;11046;49.558;8.674;2023-06-01T04:32:59;15.90;57.20
21770;DHT22;11046;49.558;8.674;2023-06-01T04:36:00;15.90;57.10
21770;DHT22;11046;49.558;8.674;2023-06-01T04:39:11;15.90;57.10
21770;DHT22;11046;49.558;8.674;2023-06-01T04:42:12;16.00;57.20
21770;DHT22;11046;49.558;8.674;2023-06-01T04:45:14;15.90;57.20
21770;DHT22;11046;49.558;8.674;2023-06-01T04:48:18;15.80;57.60
21770;DHT22;11046;49.558;8.674;2023-06-01T04:51:26;15.80;57.70
21770;DHT22;11046;49.558;8.674;2023-06-01T04:54:27;15.70;58.10
21770;DHT22;11046;49.558;8.674;2023-06-01T04:57:27;15.70;58.30
21770;DHT22;11046;49.558;8.674;2023-06-01T05:00:29;15.70;58.60
21770;DHT22;11046;49.558;8.674;2023-06-01T05:03:29;15.60;58.70
21770;DHT22;11046;49.558;8.674;2023-06-01T05:06:30;15.60;59.00
21770;DHT22;11046;49.558;8.674;2023-06-01T05:09:30;15.50;60.00
21770;DHT22;11046;49.558;8.674;2023-06-01T05:12:35;15.40;59.60
21770;DHT22;11046;49.558;8.674;2023-06-01T05:15:36;15.30;60.10
21770;DHT22;11046;49.558;8.674;2023-06-01T05:18:37;15.30;60.30
21770;DHT22;11046;49.558;8.674;2023-06-01T05:21:38;15.40;60.50
21770;DHT22;11046;49.558;8.674;2023-06-01T05:24:39;15.20;60.50
21770;DHT22;11046;49.558;8.674;2023-06-01T05:27:40;15.30;60.70
21770;DHT22;11046;49.558;8.674;2023-06-01T05:30:40;15.30;61.00
21770;DHT22;11046;49.558;8.674;2023-06-01T05:33:41;15.40;61.00
21770;DHT22;11046;49.558;8.674;2023-06-01T05:36:42;15.50;61.10
21770;DHT22;11046;49.558;8.674;2023-06-01T05:39:43;15.60;61.50
21770;DHT22;11046;49.558;8.674;2023-06-01T05:42:47;15.70;61.50
21770;DHT22;11046;49.558;8.674;2023-06-01T05:45:48;15.90;61.70
21770;DHT22;11046;49.558;8.674;2023-06-01T05:48:49;16.00;61.80
21770;DHT22;11046;49.558;8.674;2023-06-01T05:51:51;16.10;61.90
21770;DHT22;11046;49.558;8.674;2023-06-01T05:54:54;16.20;62.00
21770;DHT22;11046;49.558;8.674;2023-06-01T05:57:54;16.40;62.00
21770;DHT22;11046;49.558;8.674;2023-06-01T06:00:55;16.60;61.90
21770;DHT22;11046;49.558;8.674;2023-06-01T06:03:56;16.80;61.60
21770;DHT22;11046;49.558;8.674;2023-06-01T06:06:57;17.10;61.50
21770;DHT22;11046;49.558;8.674;2023-06-01T06:09:58;17.20;61.10
21770;DHT22;11046;49.558;8.674;2023-06-01T06:12:58;17.40;61.00
21770;DHT22;11046;49.558;8.674;2023-06-01T06:15:59;17.70;60.90
21770;DHT22;11046;49.558;8.674;2023-06-01T06:19:00;17.90;60.70
21770;DHT22;11046;49.558;8.674;2023-06-01T06:22:00;18.30;60.40
21770;DHT22;11046;49.558;8.674;2023-06-01T06:25:01;18.60;60.10
21770;DHT22;11046;49.558;8.674;2023-06-01T06:28:02;18.90;59.70
21770;DHT22;11046;49.558;8.674;2023-06-01T06:31:03;19.00;59.40
21770;DHT22;11046;49.558;8.674;2023-06-01T06:34:04;19.00;59.10
21770;DHT22;11046;49.558;8.674;2023-06-01T06:37:05;19.20;59.20
21770;DHT22;11046;49.558;8.674;2023-06-01T06:40:08;19.50;59.00
21770;DHT22;11046;49.558;8.674;2023-06-01T06:43:08;19.80;58.50
21770;DHT22;11046;49.558;8.674;2023-06-01T06:46:09;20.30;58.10
21770;DHT22;11046;49.558;8.674;2023-06-01T06:49:10;20.60;57.50
21770;DHT22;11046;49.558;8.674;2023-06-01T06:52:13;20.80;57.00
21770;DHT22;11046;49.558;8.674;2023-06-01T06:55:16;20.90;56.60
21770;DHT22;11046;49.558;8.674;2023-06-01T06:58:16;21.00;56.20
21770;DHT22;11046;49.558;8.674;2023-06-01T07:01:17;21.00;56.20
21770;DHT22;11046;49.558;8.674;2023-06-01T07:04:18;21.50;56.10
21770;DHT22;11046;49.558;8.674;2023-06-01T07:07:18;21.80;55.60
21770;DHT22;11046;49.558;8.674;2023-06-01T07:10:19;22.30;55.10
21770;DHT22;11046;49.558;8.674;2023-06-01T07:13:20;22.80;54.70
21770;DHT22;11046;49.558;8.674;2023-06-01T07:16:20;23.00;53.90
21770;DHT22;11046;49.558;8.674;2023-06-01T07:19:21;23.10;53.90
21770;DHT22;11046;49.558;8.674;2023-06-01T07:22:22;23.30;53.50
21770;DHT22;11046;49.558;8.674;2023-06-01T07:25:23;23.60;53.00
21770;DHT22;11046;49.558;8.674;2023-06-01T07:28:23;23.90;52.90
21770;DHT22;11046;49.558;8.674;2023-06-01T07:31:27;24.10;53.00
21770;DHT22;11046;49.558;8.674;2023-06-01T07:34:30;24.20;51.90
21770;DHT22;11046;49.558;8.674;2023-06-01T07:37:33;24.30;51.60
21770;DHT22;11046;49.558;8.674;2023-06-01T07:40:34;24.40;51.50
21770;DHT22;11046;49.558;8.674;2023-06-01T07:43:36;24.80;51.10
21770;DHT22;11046;49.558;8.674;2023-06-01T07:46:37;25.10;51.10
21770;DHT22;11046;49.558;8.674;2023-06-01T07:49:38;25.50;50.50
21770;DHT22;11046;49.558;8.674;2023-06-01T07:52:38;25.70;49.70
21770;DHT22;11046;49.558;8.674;2023-06-01T07:55:39;25.80;49.50
21770;DHT22;11046;49.558;8.674;2023-06-01T07:58:40;25.80;49.20
21770;DHT22;11046;49.558;8.674;2023-06-01T08:01:40;26.00;49.10
21770;DHT22;11046;49.558;8.674;2023-06-01T08:04:41;26.20;48.50
21770;DHT22;11046;49.558;8.674;2023-06-01T08:07:41;26.50;48.30
21770;DHT22;11046;49.558;8.674;2023-06-01T08:10:43;26.70;47.90
21770;DHT22;11046;49.558;8.674;2023-06-01T08:13:44;27.00;47.30
21770;DHT22;11046;49.558;8.674;2023-06-01T08:16:46;27.30;46.50
21770;DHT22;11046;49.558;8.674;2023-06-01T08:19:46;27.30;46.00
21770;DHT22;11046;49.558;8.674;2023-06-01T08:22:48;27.50;45.70
21770;DHT22;11046;49.558;8.674;2023-06-01T08:25:49;27.60;45.20
21770;DHT22;11046;49.558;8.674;2023-06-01T08:28:50;27.70;45.00
21770;DHT22;11046;49.558;8.674;2023-06-01T08:31:53;27.80;44.80
21770;DHT22;11046;49.558;8.674;2023-06-01T08:34:53;27.80;44.80
21770;DHT22;11046;49.558;8.674;2023-06-01T08:37:54;28.00;44.30
21770;DHT22;11046;49.558;8.674;2023-06-01T08:40:56;28.10;44.30
21770;DHT22;11046;49.558;8.674;2023-06-01T08:44:04;28.10;43.60
21770;DHT22;11046;49.558;8.674;2023-06-01T08:47:07;28.30;43.40
21770;DHT22;11046;49.558;8.674;2023-06-01T08:50:09;28.50;43.30
21770;DHT22;11046;49.558;8.674;2023-06-01T08:53:11;28.70;42.90
21770;DHT22;11046;49.558;8.674;2023-06-01T08:56:12;28.80;42.30
21770;DHT22;11046;49.558;8.674;2023-06-01T08:59:13;28.90;42.10
21770;DHT22;11046;49.558;8.674;2023-06-01T09:02:14;29.00;42.00
21770;DHT22;11046;49.558;8.674;2023-06-01T09:05:15;29.10;41.70
21770;DHT22;11046;49.558;8.674;2023-06-01T09:08:18;29.30;41.50
21770;DHT22;11046;49.558;8.674;2023-06-01T09:11:19;29.40;41.10
21770;DHT22;11046;49.558;8.674;2023-06-01T09:14:21;29.50;41.10
21770;DHT22;11046;49.558;8.674;2023-06-01T09:17:23;29.70;40.70
21770;DHT22;11046;49.558;8.674;2023-06-01T09:20:26;29.90;40.40
21770;DHT22;11046;49.558;8.674;2023-06-01T09:23:27;30.00;40.10
21770;DHT22;11046;49.558;8.674;2023-06-01T09:26:27;30.10;40.20
21770;DHT22;11046;49.558;8.674;2023-06-01T09:29:28;30.20;39.60
21770;DHT22;11046;49.558;8.674;2023-06-01T09:32:29;30.30;39.50
21770;DHT22;11046;49.558;8.674;2023-06-01T09:35:49;30.10;39.40
21770;DHT22;11046;49.558;8.674;2023-06-01T09:38:50;30.00;39.20
21770;DHT22;11046;49.558;8.674;2023-06-01T09:41:55;29.80;39.30
21770;DHT22;11046;49.558;8.674;2023-06-01T09:45:18;30.00;39.00
21770;DHT22;11046;49.558;8.674;2023-06-01T09:48:19;30.00;39.10
21770;DHT22;11046;49.558;8.674;2023-06-01T09:51:23;30.30;39.50
21770;DHT22;11046;49.558;8.674;2023-06-01T09:54:30;30.30;39.00
21770;DHT22;11046;49.558;8.674;2023-06-01T09:57:31;30.50;38.90
21770;DHT22;11046;49.558;8.674;2023-06-01T10:00:32;30.70;38.90
21770;DHT22;11046;49.558;8.674;2023-06-01T10:03:33;30.90;38.50
21770;DHT22;11046;49.558;8.674;2023-06-01T10:06:39;31.20;37.90
21770;DHT22;11046;49.558;8.674;2023-06-01T10:09:42;31.10;37.30
21770;DHT22;11046;49.558;8.674;2023-06-01T10:12:44;31.10;37.20
21770;DHT22;11046;49.558;8.674;2023-06-01T10:15:45;30.90;37.50
21770;DHT22;11046;49.558;8.674;2023-06-01T10:18:46;30.90;37.70
21770;DHT22;11046;49.558;8.674;2023-06-01T10:21:48;31.00;37.40
21770;DHT22;11046;49.558;8.674;2023-06-01T10:24:55;31.30;37.00
21770;DHT22;11046;49.558;8.674;2023-06-01T10:28:06;31.20;36.00
21770;DHT22;11046;49.558;8.674;2023-06-01T10:37:37;30.90;36.00
21770;DHT22;11046;49.558;8.674;2023-06-01T10:40:37;30.90;36.10
21770;DHT22;11046;49.558;8.674;2023-06-01T10:46:40;31.60;35.10
21770;DHT22;11046;49.558;8.674;2023-06-01T10:52:51;31.70;34.50
21770;DHT22;11046;49.558;8.674;2023-06-01T10:56:24;31.80;34.50
21770;DHT22;11046;49.558;8.674;2023-06-01T10:59:25;31.70;33.50
21770;DHT22;11046;49.558;8.674;2023-06-01T11:02:26;31.60;33.90
21770;DHT22;11046;49.558;8.674;2023-06-01T11:05:36;31.50;33.90
21770;DHT22;11046;49.558;8.674;2023-06-01T11:15:08;32.10;34.70
21770;DHT22;11046;49.558;8.674;2023-06-01T11:21:42;32.40;32.80
21770;DHT22;11046;49.558;8.674;2023-06-01T11:24:46;32.30;33.20
21770;DHT22;11046;49.558;8.674;2023-06-01T11:27:50;32.20;33.20
21770;DHT22;11046;49.558;8.674;2023-06-01T11:30:51;32.20;33.10
21770;DHT22;11046;49.558;8.674;2023-06-01T11:33:53;32.20;32.80
21770;DHT22;11046;49.558;8.674;2023-06-01T11:36:56;32.00;32.90
21770;DHT22;11046;49.558;8.674;2023-06-01T11:40:05;32.00;32.80
21770;DHT22;11046;49.558;8.674;2023-06-01T11:43:08;32.10;33.00
21770;DHT22;11046;49.558;8.674;2023-06-01T11:46:09;32.30;32.70
21770;DHT22;11046;49.558;8.674;2023-06-01T11:49:10;32.50;32.20
21770;DHT22;11046;49.558;8.674;2023-06-01T11:52:15;32.50;31.90
21770;DHT22;11046;49.558;8.674;2023-06-01T11:55:15;32.50;31.50
21770;DHT22;11046;49.558;8.674;2023-06-01T11:58:29;32.60;31.80
21770;DHT22;11046;49.558;8.674;2023-06-01T12:01:30;32.40;31.50
21770;DHT22;11046;49.558;8.674;2023-06-01T12:04:31;32.20;32.00
21770;DHT22;11046;49.558;8.674;2023-06-01T12:07:42;32.50;31.90
21770;DHT22;11046;49.558;8.674;2023-06-01T12:10:48;32.70;31.30
21770;DHT22;11046;49.558;8.674;2023-06-01T12:13:49;32.70;30.90
21770;DHT22;11046;49.558;8.674;2023-06-01T12:16:58;32.60;30.70
21770;DHT22;11046;49.558;8.674;2023-06-01T12:20:01;32.60;30.60
21770;DHT22;11046;49.558;8.674;2023-06-01T12:23:15;32.60;30.70
21770;DHT22;11046;49.558;8.674;2023-06-01T12:26:16;32.80;30.50
21770;DHT22;11046;49.558;8.674;2023-06-01T12:29:43;32.90;30.60
21770;DHT22;11046;49.558;8.674;2023-06-01T12:32:44;33.00;30.80
21770;DHT22;11046;49.558;8.674;2023-06-01T12:35:54;33.20;30.30
21770;DHT22;11046;49.558;8.674;2023-06-01T12:38:58;33.00;30.50
21770;DHT22;11046;49.558;8.674;2023-06-01T12:42:03;33.10;30.90
21770;DHT22;11046;49.558;8.674;2023-06-01T12:45:06;33.10;30.50
21770;DHT22;11046;49.558;8.674;2023-06-01T12:48:32;33.10;30.30
21770;DHT22;11046;49.558;8.674;2023-06-01T12:51:34;32.90;30.40
21770;DHT22;11046;49.558;8.674;2023-06-01T12:54:42;32.90;30.90
21770;DHT22;11046;49.558;8.674;2023-06-01T12:57:54;32.80;31.50
21770;DHT22;11046;49.558;8.674;2023-06-01T13:00:55;32.90;30.80
21770;DHT22;11046;49.558;8.674;2023-06-01T13:03:55;32.90;30.80
21770;DHT22;11046;49.558;8.674;2023-06-01T13:06:57;32.90;31.10
21770;DHT22;11046;49.558;8.674;2023-06-01T13:09:57;32.70;31.00
21770;DHT22;11046;49.558;8.674;2023-06-01T13:12:59;32.50;31.10
21770;DHT22;11046;49.558;8.674;2023-06-01T13:16:00;32.60;31.10
21770;DHT22;11046;49.558;8.674;2023-06-01T13:19:02;32.60;31.70
21770;DHT22;11046;49.558;8.674;2023-06-01T13:22:04;32.60;31.70
21770;DHT22;11046;49.558;8.674;2023-06-01T13:25:05;32.60;31.30
21770;DHT22;11046;49.558;8.674;2023-06-01T13:28:06;32.60;31.10
21770;DHT22;11046;49.558;8.674;2023-06-01T13:31:08;32.50;31.10
21770;DHT22;11046;49.558;8.674;2023-06-01T13:34:09;32.40;31.30
21770;DHT22;11046;49.558;8.674;2023-06-01T13:37:10;32.30;31.20
21770;DHT22;11046;49.558;8.674;2023-06-01T13:40:10;32.30;31.00
21770;DHT22;11046;49.558;8.674;2023-06-01T13:43:11;32.10;30.50
21770;DHT22;11046;49.558;8.674;2023-06-01T13:46:12;31.80;30.40
21770;DHT22;11046;49.558;8.674;2023-06-01T13:49:13;31.80;30.80
21770;DHT22;11046;49.558;8.674;2023-06-01T13:52:14;31.70;30.60
21770;DHT22;11046;49.558;8.674;2023-06-01T13:55:14;31.60;30.80
21770;DHT22;11046;49.558;8.674;2023-06-01T13:58:15;31.60;31.00
21770;DHT22;11046;49.558;8.674;2023-06-01T14:01:16;31.70;31.10
21770;DHT22;11046;49.558;8.674;2023-06-01T14:04:17;31.80;31.30
21770;DHT22;11046;49.558;8.674;2023-06-01T14:07:18;31.70;31.20
21770;DHT22;11046;49.558;8.674;2023-06-01T14:10:18;31.90;31.60
21770;DHT22;11046;49.558;8.674;2023-06-01T14:13:19;31.80;31.40
21770;DHT22;11046;49.558;8.674;2023-06-01T14:16:19;31.80;31.00
21770;DHT22;11046;49.558;8.674;2023-06-01T14:19:20;31.40;31.20
21770;DHT22;11046;49.558;8.674;2023-06-01T14:22:21;31.50;31.60
21770;DHT22;11046;49.558;8.674;2023-06-01T14:25:21;31.40;31.30
21770;DHT22;11046;49.558;8.674;2023-06-01T14:28:22;31.40;31.40
21770;DHT22;11046;49.558;8.674;2023-06-01T14:31:22;31.50;31.00
21770;DHT22;11046;49.558;8.674;2023-06-01T14:34:23;31.50;30.80
21770;DHT22;11046;49.558;8.674;2023-06-01T14:37:24;31.50;30.50
21770;DHT22;11046;49.558;8.674;2023-06-01T14:40:25;31.20;30.20
21770;DHT22;11046;49.558;8.674;2023-06-01T14:43:25;31.30;30.60
21770;DHT22;11046;49.558;8.674;2023-06-01T14:46:26;31.30;30.60
21770;DHT22;11046;49.558;8.674;2023-06-01T14:49:27;31.30;30.70
21770;DHT22;11046;49.558;8.674;2023-06-01T14:52:27;31.40;30.60
21770;DHT22;11046;49.558;8.674;2023-06-01T14:55:28;31.40;30.70
21770;DHT22;11046;49.558;8.674;2023-06-01T14:58:28;31.50;31.00
21770;DHT22;11046;49.558;8.674;2023-06-01T15:01:29;31.70;30.80
21770;DHT22;11046;49.558;8.674;2023-06-01T15:04:30;31.60;30.60
21770;DHT22;11046;49.558;8.674;2023-06-01T15:07:30;31.50;30.90
21770;DHT22;11046;49.558;8.674;2023-06-01T15:10:31;31.40;30.80
21770;DHT22;11046;49.558;8.674;2023-06-01T15:13:31;31.30;30.80
21770;DHT22;11046;49.558;8.674;2023-06-01T15:16:32;31.10;31.20
21770;DHT22;11046;49.558;8.674;2023-06-01T15:19:32;31.10;31.00
21770;DHT22;11046;49.558;8.674;2023-06-01T15:22:33;31.10;30.70
21770;DHT22;11046;49.558;8.674;2023-06-01T15:25:33;31.00;30.20
21770;DHT22;11046;49.558;8.674;2023-06-01T15:28:34;30.90;30.00
21770;DHT22;11046;49.558;8.674;2023-06-01T15:31:35;30.90;29.90
21770;DHT22;11046;49.558;8.674;2023-06-01T15:34:35;30.70;30.00
21770;DHT22;11046;49.558;8.674;2023-06-01T15:37:41;30.50;29.80
21770;DHT22;11046;49.558;8.674;2023-06-01T15:40:41;30.00;30.10
21770;DHT22;11046;49.558;8.674;2023-06-01T15:43:42;29.80;30.90
21770;DHT22;11046;49.558;8.674;2023-06-01T15:46:44;29.80;30.80
21770;DHT22;11046;49.558;8.674;2023-06-01T15:49:46;29.80;30.60
21770;DHT22;11046;49.558;8.674;2023-06-01T15:52:46;29.70;30.80
21770;DHT22;11046;49.558;8.674;2023-06-01T15:55:47;29.70;30.80
21770;DHT22;11046;49.558;8.674;2023-06-01T15:58:47;29.70;30.80
21770;DHT22;11046;49.558;8.674;2023-06-01T16:01:50;29.60;31.00
21770;DHT22;11046;49.558;8.674;2023-06-01T16:04:51;29.70;31.10
21770;DHT22;11046;49.558;8.674;2023-06-01T16:07:51;29.60;30.70
21770;DHT22;11046;49.558;8.674;2023-06-01T16:10:52;29.40;30.30
21770;DHT22;11046;49.558;8.674;2023-06-01T16:13:52;29.20;30.00
21770;DHT22;11046;49.558;8.674;2023-06-01T16:16:53;29.10;30.00
21770;DHT22;11046;49.558;8.674;2023-06-01T16:19:53;29.10;29.70
21770;DHT22;11046;49.558;8.674;2023-06-01T16:22:54;29.00;29.50
21770;DHT22;11046;49.558;8.674;2023-06-01T16:25:55;28.80;29.20
21770;DHT22;11046;49.558;8.674;2023-06-01T16:28:55;28.60;29.20
21770;DHT22;11046;49.558;8.674;2023-06-01T16:31:56;28.40;29.30
21770;DHT22;11046;49.558;8.674;2023-06-01T16:34:57;28.40;29.40
21770;DHT22;11046;49.558;8.674;2023-06-01T16:37:59;28.30;29.50
21770;DHT22;11046;49.558;8.674;2023-06-01T16:41:00;28.30;29.80
21770;DHT22;11046;49.558;8.674;2023-06-01T16:44:01;28.10;29.80
21770;DHT22;11046;49.558;8.674;2023-06-01T16:47:02;28.00;30.00
21770;DHT22;11046;49.558;8.674;2023-06-01T16:50:02;28.00;30.00
21770;DHT22;11046;49.558;8.674;2023-06-01T16:53:03;27.90;29.90
21770;DHT22;11046;49.558;8.674;2023-06-01T16:56:04;27.90;30.10
21770;DHT22;11046;49.558;8.674;2023-06-01T16:59:04;27.80;30.20
21770;DHT22;11046;49.558;8.674;2023-06-01T17:02:05;27.70;30.60
21770;DHT22;11046;49.558;8.674;2023-06-01T17:05:06;27.60;30.50
21770;DHT22;11046;49.558;8.674;2023-06-01T17:08:07;27.60;30.50
21770;DHT22;11046;49.558;8.674;2023-06-01T17:11:08;27.60;30.60
21770;DHT22;11046;49.558;8.674;2023-06-01T17:14:08;27.60;30.80
21770;DHT22;11046;49.558;8.674;2023-06-01T17:17:09;27.50;31.10
21770;DHT22;11046;49.558;8.674;2023-06-01T17:20:10;27.50;31.30
21770;DHT22;11046;49.558;8.674;2023-06-01T17:23:10;27.40;31.40
21770;DHT22;11046;49.558;8.674;2023-06-01T17:26:11;27.30;31.50
21770;DHT22;11046;49.558;8.674;2023-06-01T17:29:12;27.40;31.80
21770;DHT22;11046;49.558;8.674;2023-06-01T17:32:12;27.30;31.90
21770;DHT22;11046;49.558;8.674;2023-06-01T17:35:13;27.30;32.10
21770;DHT22;11046;49.558;8.674;2023-06-01T17:38:13;27.20;32.10
21770;DHT22;11046;49.558;8.674;2023-06-01T17:41:14;27.20;32.00
21770;DHT22;11046;49.558;8.674;2023-06-01T17:44:15;27.10;32.20
21770;DHT22;11046;49.558;8.674;2023-06-01T17:47:16;27.00;32.70
21770;DHT22;11046;49.558;8.674;2023-06-01T17:50:17;26.90;33.30
21770;DHT22;11046;49.558;8.674;2023-06-01T17:53:17;26.70;33.80
21770;DHT22;11046;49.558;8.674;2023-06-01T17:56:18;26.50;34.50
21770;DHT22;11046;49.558;8.674;2023-06-01T17:59:18;26.40;35.20
21770;DHT22;11046;49.558;8.674;2023-06-01T18:02:19;26.10;35.40
21770;DHT22;11046;49.558;8.674;2023-06-01T18:05:20;26.00;35.90
21770;DHT22;11046;49.558;8.674;2023-06-01T18:08:21;25.80;36.40
21770;DHT22;11046;49.558;8.674;2023-06-01T18:11:21;25.80;36.70
21770;DHT22;11046;49.558;8.674;2023-06-01T18:14:22;25.70;36.90
21770;DHT22;11046;49.558;8.674;2023-06-01T18:17:23;25.80;37.10
21770;DHT22;11046;49.558;8.674;2023-06-01T18:20:24;25.80;37.40
21770;DHT22;11046;49.558;8.674;2023-06-01T18:23:25;25.80;37.80
21770;DHT22;11046;49.558;8.674;2023-06-01T18:26:25;25.90;37.90
21770;DHT22;11046;49.558;8.674;2023-06-01T18:29:26;26.00;37.90
21770;DHT22;11046;49.558;8.674;2023-06-01T18:32:27;26.10;37.90
21770;DHT22;11046;49.558;8.674;2023-06-01T18:35:27;26.10;37.90
21770;DHT22;11046;49.558;8.674;2023-06-01T18:38:28;26.00;38.00
21770;DHT22;11046;49.558;8.674;2023-06-01T18:41:28;25.90;38.00
21770;DHT22;11046;49.558;8.674;2023-06-01T18:44:29;25.80;38.20
21770;DHT22;11046;49.558;8.674;2023-06-01T18:47:30;25.70;38.60
21770;DHT22;11046;49.558;8.674;2023-06-01T18:50:30;25.50;38.80
21770;DHT22;11046;49.558;8.674;2023-06-01T18:53:32;25.30;39.00
21770;DHT22;11046;49.558;8.674;2023-06-01T18:56:32;25.30;39.40
21770;DHT22;11046;49.558;8.674;2023-06-01T18:59:33;25.10;39.60
21770;DHT22;11046;49.558;8.674;2023-06-01T19:02:33;25.00;40.00
21770;DHT22;11046;49.558;8.674;2023-06-01T19:05:34;24.80;40.40
21770;DHT22;11046;49.558;8.674;2023-06-01T19:08:35;24.50;40.70
21770;DHT22;11046;49.558;8.674;2023-06-01T19:11:35;24.40;41.00
21770;DHT22;11046;49.558;8.674;2023-06-01T19:14:36;24.30;41.20
21770;DHT22;11046;49.558;8.674;2023-06-01T19:17:37;24.20;41.40
21770;DHT22;11046;49.558;8.674;2023-06-01T19:23:46;23.80;42.10
21770;DHT22;11046;49.558;8.674;2023-06-01T19:26:47;23.60;42.70
21770;DHT22;11046;49.558;8.674;2023-06-01T19:29:48;23.50;42.60
21770;DHT22;11046;49.558;8.674;2023-06-01T19:32:48;23.30;42.80
21770;DHT22;11046;49.558;8.674;2023-06-01T19:35:49;23.10;43.00